createdAt,value
2019-05-03T00:02:42.291Z,13.00
2019-05-03T00:05:25.508Z,11.83
2019-05-03T00:07:59.758Z,11.85
2019-05-03T00:10:28.205Z,11.70
2019-05-03T00:12:56.098Z,11.78
2019-05-03T00:15:44.573Z,13.03
2019-05-03T00:18:16.628Z,12.90
2019-05-03T00:20:44.597Z,12.30
2019-05-03T00:23:17.362Z,13.03
2019-05-03T00:25:47.324Z,13.48
2019-05-03T00:28:23.527Z,13.32
2019-05-03T00:30:51.959Z,13.22
2019-05-03T00:33:22.676Z,13.05
2019-05-03T00:36:12.645Z,12.93
2019-05-03T00:38:42.750Z,13.48
2019-05-03T00:41:12.173Z,14.78
2019-05-03T00:43:42.317Z,13.00
2019-05-03T00:46:14.476Z,13.08
2019-05-03T00:48:43.141Z,13.18
2019-05-03T00:51:11.914Z,13.43
2019-05-03T00:53:42.371Z,13.50
2019-05-03T00:56:12.261Z,11.83
2019-05-03T00:58:56.609Z,13.80
2019-05-03T01:01:25.667Z,15.23
2019-05-03T01:03:53.511Z,14.25
2019-05-03T01:06:22.347Z,14.63
2019-05-03T01:08:52.229Z,13.25
2019-05-03T01:11:22.233Z,14.13
2019-05-03T01:13:52.247Z,13.75
2019-05-03T01:16:22.693Z,13.95
2019-05-03T01:18:52.625Z,14.50
2019-05-03T01:21:22.555Z,14.15
2019-05-03T01:23:52.327Z,14.30
2019-05-03T01:26:22.460Z,15.13
2019-05-03T01:28:49.732Z,15.50
2019-05-03T01:31:22.722Z,14.05
2019-05-03T01:33:51.845Z,14.83
2019-05-03T01:36:20.300Z,15.20
2019-05-03T01:38:49.433Z,14.18
2019-05-03T01:41:17.312Z,16.30
2019-05-03T01:43:45.336Z,16.73
2019-05-03T01:46:13.176Z,15.15
2019-05-03T01:48:57.414Z,15.90
2019-05-03T01:51:37.183Z,15.75
2019-05-03T01:54:05.540Z,15.58
2019-05-03T01:56:33.151Z,14.75
2019-05-03T01:59:01.886Z,15.20
2019-05-03T02:01:42.079Z,14.20
2019-05-03T02:04:21.578Z,15.58
2019-05-03T02:06:51.942Z,14.33
2019-05-03T02:09:21.654Z,16.02
2019-05-03T02:11:49.466Z,14.63
2019-05-03T02:14:17.365Z,15.48
2019-05-03T02:16:45.149Z,14.98
2019-05-03T02:19:13.107Z,15.30
2019-05-03T02:21:41.646Z,14.07
2019-05-03T02:24:11.646Z,15.72
2019-05-03T02:26:39.171Z,15.15
2019-05-03T02:29:08.352Z,14.73
2019-05-03T02:31:36.112Z,14.87
2019-05-03T02:34:03.956Z,15.00
2019-05-03T02:36:33.910Z,15.83
2019-05-03T02:39:06.035Z,14.40
2019-05-03T02:41:33.710Z,14.83
2019-05-03T02:44:06.287Z,15.05
2019-05-03T02:46:50.272Z,15.23
2019-05-03T02:49:37.819Z,15.45
2019-05-03T02:52:06.663Z,15.30
2019-05-03T02:54:37.296Z,14.40
2019-05-03T02:57:06.296Z,15.65
2019-05-03T02:59:34.771Z,15.32
2019-05-03T03:02:06.128Z,16.30
2019-05-03T03:04:35.344Z,15.85
2019-05-03T03:07:05.645Z,16.42
2019-05-03T03:09:36.071Z,16.85
2019-05-03T03:12:06.376Z,16.50
2019-05-03T03:14:36.398Z,16.57
2019-05-03T03:17:07.310Z,16.17
2019-05-03T03:19:38.116Z,16.65
2019-05-03T03:22:09.431Z,15.83
2019-05-03T03:24:41.848Z,17.00
2019-05-03T03:27:16.103Z,16.70
2019-05-03T03:29:47.766Z,16.90
2019-05-03T03:32:29.087Z,18.35
2019-05-03T03:35:21.261Z,17.10
2019-05-03T03:37:49.357Z,17.27
2019-05-03T03:40:21.192Z,18.37
2019-05-03T03:42:51.250Z,18.90
2019-05-03T03:45:20.678Z,19.48
2019-05-03T03:47:56.653Z,18.62
2019-05-03T03:50:26.225Z,17.80
2019-05-03T03:53:01.635Z,18.85
2019-05-03T03:55:31.079Z,18.07
2019-05-03T03:58:01.973Z,18.55
2019-05-03T04:00:30.733Z,19.73
2019-05-03T04:03:05.968Z,17.85
2019-05-03T04:05:35.879Z,21.77
2019-05-03T04:08:05.967Z,22.65
2019-05-03T04:10:35.267Z,20.85
2019-05-03T04:13:25.575Z,20.77
2019-05-03T04:16:06.714Z,18.90
2019-05-03T04:18:55.333Z,18.52
2019-05-03T04:21:25.532Z,17.98
2019-05-03T04:23:55.702Z,17.65
2019-05-03T04:26:29.015Z,18.98
2019-05-03T04:28:56.024Z,18.70
2019-05-03T04:31:26.128Z,20.57
2019-05-03T04:33:56.098Z,20.57
2019-05-03T04:36:25.983Z,21.50
2019-05-03T04:38:56.054Z,19.23
2019-05-03T04:41:23.102Z,20.72
2019-05-03T04:43:50.977Z,19.77
2019-05-03T04:46:21.511Z,21.97
2019-05-03T04:48:49.521Z,20.55
2019-05-03T04:51:17.380Z,21.75
2019-05-03T04:53:51.539Z,20.80
2019-05-03T04:56:19.396Z,22.40
2019-05-03T04:58:48.323Z,21.12
2019-05-03T05:01:17.040Z,23.80
2019-05-03T05:03:45.730Z,22.58
2019-05-03T05:06:15.476Z,23.67
2019-05-03T05:08:45.912Z,22.67
2019-05-03T05:11:15.753Z,22.55
2019-05-03T05:13:45.582Z,25.72
2019-05-03T05:16:15.839Z,22.82
2019-05-03T05:18:48.393Z,23.18
2019-05-03T05:21:41.919Z,23.10
2019-05-03T05:24:09.579Z,23.75
2019-05-03T05:26:59.422Z,23.52
2019-05-03T05:29:29.375Z,22.42
2019-05-03T05:31:57.001Z,22.50
2019-05-03T05:34:24.907Z,22.20
2019-05-03T05:36:52.462Z,23.22
2019-05-03T05:39:21.806Z,23.27
2019-05-03T05:41:50.878Z,24.50
2019-05-03T05:44:18.736Z,23.85
2019-05-03T05:47:10.032Z,22.32
2019-05-03T05:50:09.077Z,23.02
2019-05-03T05:52:36.687Z,22.05
2019-05-03T05:55:30.186Z,22.85
2019-05-03T05:58:12.376Z,22.20
2019-05-03T06:00:49.702Z,21.90
2019-05-03T06:03:18.662Z,21.57
2019-05-03T06:05:46.542Z,21.35
2019-05-03T06:08:39.334Z,20.23
2019-05-03T06:11:26.753Z,22.98
2019-05-03T06:14:01.605Z,20.15
2019-05-03T06:16:35.186Z,22.22
2019-05-03T06:19:25.472Z,22.90
2019-05-03T06:22:16.951Z,23.60
2019-05-03T06:24:50.800Z,22.62
2019-05-03T06:27:25.417Z,21.80
2019-05-03T06:29:55.139Z,23.07
2019-05-03T06:32:35.484Z,22.15
2019-05-03T06:35:04.923Z,21.37
2019-05-03T06:37:39.828Z,20.70
2019-05-03T06:40:07.722Z,22.75
2019-05-03T06:42:35.897Z,21.50
2019-05-03T06:45:10.371Z,20.82
2019-05-03T06:47:35.354Z,21.07
2019-05-03T06:50:05.495Z,20.20
2019-05-03T06:52:35.162Z,21.85
2019-05-03T06:55:06.441Z,21.45
2019-05-03T06:57:40.018Z,21.57
2019-05-03T07:00:32.115Z,20.82
2019-05-03T07:03:28.182Z,22.15
2019-05-03T07:06:32.958Z,21.20
2019-05-03T07:08:57.261Z,21.42
2019-05-03T07:11:25.241Z,20.65
2019-05-03T07:13:54.984Z,19.82
2019-05-03T07:16:25.138Z,20.70
2019-05-03T07:18:52.519Z,20.37
2019-05-03T07:21:20.136Z,21.52
2019-05-03T07:23:47.870Z,20.62
2019-05-03T07:26:15.705Z,20.85
2019-05-03T07:28:49.774Z,18.75
2019-05-03T07:31:15.298Z,19.82
2019-05-03T07:33:44.621Z,28.32
2019-05-03T07:36:12.507Z,21.50
2019-05-03T07:38:40.468Z,21.47
2019-05-03T07:41:08.062Z,20.07
2019-05-03T07:43:36.167Z,18.97
2019-05-03T07:46:05.610Z,20.33
2019-05-03T07:48:35.365Z,19.80
2019-05-03T07:51:05.327Z,18.67
2019-05-03T07:53:34.874Z,20.00
2019-05-03T07:56:10.600Z,19.00
2019-05-03T07:58:40.022Z,18.87
2019-05-03T08:01:14.808Z,19.27
2019-05-03T08:03:45.141Z,19.40
2019-05-03T08:06:14.782Z,19.10
2019-05-03T08:08:42.655Z,18.63
2019-05-03T08:11:10.615Z,21.50
2019-05-03T08:13:38.342Z,15.97
2019-05-03T08:16:06.295Z,16.03
2019-05-03T08:18:35.462Z,15.87
2019-05-03T08:21:05.591Z,17.47
2019-05-03T08:23:35.236Z,16.70
2019-05-03T08:26:05.882Z,22.20
2019-05-03T08:28:34.613Z,21.80
2019-05-03T08:31:41.619Z,19.60
2019-05-03T08:34:27.388Z,13.60
2019-05-03T08:36:57.345Z,13.90
2019-05-03T08:39:26.102Z,14.50
2019-05-03T08:42:01.939Z,14.87
2019-05-03T08:44:30.053Z,27.40
2019-05-03T08:46:57.860Z,14.07
2019-05-03T08:49:25.632Z,13.20
2019-05-03T08:51:54.990Z,11.73
2019-05-03T08:54:22.862Z,13.03
2019-05-03T08:56:50.479Z,11.00
2019-05-03T08:59:28.726Z,10.40
2019-05-03T09:01:48.242Z,11.17
2019-05-03T09:04:15.993Z,10.47
2019-05-03T09:06:44.658Z,10.57
2019-05-03T09:09:45.992Z,10.70
2019-05-03T09:12:14.534Z,10.50
2019-05-03T09:14:45.714Z,11.13
2019-05-03T09:17:11.817Z,9.70
2019-05-03T09:19:39.604Z,11.17
2019-05-03T09:22:07.490Z,8.77
2019-05-03T09:24:35.426Z,10.77
2019-05-03T09:27:05.143Z,8.57
2019-05-03T09:29:42.499Z,11.37
2019-05-03T09:32:05.183Z,7.77
2019-05-03T09:34:34.960Z,7.07
2019-05-03T09:37:04.796Z,9.57
2019-05-03T09:39:33.024Z,9.00
2019-05-03T09:42:00.687Z,8.43
2019-05-03T09:44:28.234Z,10.97
2019-05-03T09:46:55.807Z,9.40
2019-05-03T09:49:25.338Z,7.77
2019-05-03T09:51:54.818Z,5.53
2019-05-03T09:54:30.911Z,3.63
2019-05-03T09:56:59.320Z,6.73
2019-05-03T09:59:30.085Z,7.70
2019-05-03T10:02:00.750Z,7.20
2019-05-03T10:04:28.689Z,6.47
2019-05-03T10:06:57.735Z,9.10
2019-05-03T10:09:26.325Z,6.30
2019-05-03T10:11:55.254Z,7.00
2019-05-03T10:14:23.132Z,8.27
2019-05-03T10:17:00.641Z,6.23
2019-05-03T10:19:39.657Z,6.20
2019-05-03T10:21:59.860Z,6.77
2019-05-03T10:24:29.642Z,8.17
2019-05-03T10:26:57.527Z,6.00
2019-05-03T10:29:25.377Z,5.53
2019-05-03T10:32:03.732Z,5.80
2019-05-03T10:34:31.696Z,5.30
2019-05-03T10:37:00.867Z,6.30
2019-05-03T10:39:28.678Z,5.60
2019-05-03T10:41:56.659Z,9.67
2019-05-03T10:44:24.716Z,6.73
2019-05-03T10:46:52.684Z,6.43
2019-05-03T10:49:20.613Z,5.60
2019-05-03T10:51:56.608Z,7.87
2019-05-03T10:54:27.790Z,6.00
2019-05-03T10:57:17.166Z,5.13
2019-05-03T10:59:45.096Z,5.67
2019-05-03T11:02:50.238Z,6.27
2019-05-03T11:05:19.280Z,7.60
2019-05-03T11:07:46.973Z,7.67
2019-05-03T11:10:18.035Z,4.57
2019-05-03T11:12:46.013Z,6.60
2019-05-03T11:15:14.993Z,5.17
2019-05-03T11:17:42.841Z,6.43
2019-05-03T11:20:12.055Z,5.23
2019-05-03T11:22:40.577Z,6.23
2019-05-03T11:25:08.157Z,6.40
2019-05-03T11:27:44.713Z,6.60
2019-05-03T11:30:13.083Z,5.60
2019-05-03T11:33:04.715Z,5.50
2019-05-03T11:35:45.841Z,5.87
2019-05-03T11:38:19.459Z,5.57
2019-05-03T11:40:47.418Z,5.07
2019-05-03T11:43:17.139Z,5.97
2019-05-03T11:45:45.148Z,5.80
2019-05-03T11:48:14.721Z,5.60
2019-05-03T11:50:45.188Z,5.13
2019-05-03T11:53:14.523Z,5.90
2019-05-03T11:55:46.480Z,5.07
2019-05-03T11:58:18.377Z,4.47
2019-05-03T12:00:48.783Z,4.90
2019-05-03T12:03:26.252Z,4.97
2019-05-03T12:05:55.648Z,4.30
2019-05-03T12:08:25.291Z,7.27
2019-05-03T12:10:58.615Z,5.23
2019-05-03T12:13:28.409Z,5.90
2019-05-03T12:15:59.290Z,5.00
2019-05-03T12:18:27.539Z,5.37
2019-05-03T12:20:58.185Z,5.40
2019-05-03T12:23:28.503Z,6.73
2019-05-03T12:25:58.202Z,6.10
2019-05-03T12:28:27.905Z,5.50
2019-05-03T12:30:56.264Z,4.20
2019-05-03T12:33:26.001Z,5.17
2019-05-03T12:35:55.212Z,5.87
2019-05-03T12:38:25.375Z,4.80
2019-05-03T12:40:54.584Z,4.87
2019-05-03T12:43:22.632Z,4.60
2019-05-03T12:45:54.247Z,4.40
2019-05-03T12:48:22.023Z,5.17
2019-05-03T12:50:53.830Z,5.50
2019-05-03T12:53:22.138Z,7.90
2019-05-03T12:55:52.364Z,5.90
2019-05-03T12:58:22.014Z,5.03
2019-05-03T13:01:21.062Z,4.80
2019-05-03T13:04:02.507Z,5.00
2019-05-03T13:06:34.621Z,4.30
2019-05-03T13:09:05.597Z,4.17
2019-05-03T13:11:36.742Z,4.90
2019-05-03T13:14:05.797Z,4.20
2019-05-03T13:16:35.349Z,5.03
2019-05-03T13:19:05.645Z,4.27
2019-05-03T13:21:35.491Z,4.53
2019-05-03T13:24:05.540Z,4.53
2019-05-03T13:26:35.334Z,4.23
2019-05-03T13:29:03.071Z,4.90
2019-05-03T13:31:30.675Z,4.30
2019-05-03T13:34:02.212Z,4.77
2019-05-03T13:36:30.113Z,4.00
2019-05-03T13:39:11.416Z,4.90
2019-05-03T13:41:31.201Z,4.83
2019-05-03T13:43:58.980Z,4.40
2019-05-03T13:46:27.762Z,4.20
2019-05-03T13:48:55.610Z,3.73
2019-05-03T13:51:26.774Z,4.00
2019-05-03T13:53:55.032Z,4.20
2019-05-03T13:56:24.736Z,5.47
2019-05-03T13:58:52.381Z,4.00
2019-05-03T14:01:20.207Z,5.17
2019-05-03T14:03:48.157Z,5.90
2019-05-03T14:06:15.779Z,4.37
2019-05-03T14:08:45.442Z,4.50
2019-05-03T14:11:12.932Z,4.43
2019-05-03T14:13:40.950Z,4.60
2019-05-03T14:16:09.091Z,4.13
2019-05-03T14:18:36.962Z,4.33
2019-05-03T14:21:25.281Z,4.43
2019-05-03T14:24:12.199Z,4.90
2019-05-03T14:26:41.407Z,3.93
2019-05-03T14:29:09.273Z,4.20
2019-05-03T14:31:39.036Z,4.27
2019-05-03T14:34:06.989Z,4.13
2019-05-03T14:36:35.869Z,4.17
2019-05-03T14:39:09.329Z,3.87
2019-05-03T14:41:37.466Z,5.03
2019-05-03T14:44:05.510Z,4.00
2019-05-03T14:46:36.056Z,3.80
2019-05-03T14:49:05.437Z,4.43
2019-05-03T14:51:40.408Z,4.27
2019-05-03T14:54:09.203Z,5.30
2019-05-03T14:56:49.104Z,4.33
2019-05-03T14:59:48.321Z,4.73
2019-05-03T15:02:43.592Z,3.80
2019-05-03T15:05:08.603Z,3.93
2019-05-03T15:07:38.018Z,3.83
2019-05-03T15:10:06.518Z,3.87
2019-05-03T15:12:35.958Z,5.10
2019-05-03T15:15:05.531Z,4.10
2019-05-03T15:17:35.047Z,4.60
2019-05-03T15:20:03.845Z,4.20
2019-05-03T15:22:31.596Z,4.87
2019-05-03T15:24:59.529Z,5.00
2019-05-03T15:27:27.774Z,5.10
2019-05-03T15:29:55.649Z,4.90
2019-05-03T15:32:23.519Z,4.50
2019-05-03T15:34:51.384Z,4.50
2019-05-03T15:37:19.297Z,4.70
2019-05-03T15:39:47.894Z,4.83
2019-05-03T15:42:16.893Z,4.80
2019-05-03T15:45:00.753Z,5.07
2019-05-03T15:47:38.824Z,5.17
2019-05-03T15:50:06.572Z,4.13
2019-05-03T15:52:36.462Z,5.37
2019-05-03T15:55:05.131Z,4.50
2019-05-03T15:57:32.902Z,5.00
2019-05-03T16:00:00.766Z,4.80
2019-05-03T16:02:28.630Z,4.70
2019-05-03T16:04:58.708Z,5.10
2019-05-03T16:07:27.263Z,6.00
2019-05-03T16:09:55.440Z,4.80
2019-05-03T16:12:23.393Z,5.97
2019-05-03T16:14:51.670Z,5.50
2019-05-03T16:17:19.464Z,5.07
2019-05-03T16:19:48.291Z,6.20
2019-05-03T16:22:16.070Z,5.40
2019-05-03T16:24:47.823Z,5.30
2019-05-03T16:27:37.853Z,5.53
2019-05-03T16:30:20.560Z,5.00
2019-05-03T16:32:49.341Z,5.73
2019-05-03T16:35:17.184Z,5.40
2019-05-03T16:37:45.926Z,5.28
2019-05-03T16:40:14.179Z,4.83
2019-05-03T16:42:44.484Z,5.30
2019-05-03T16:45:12.430Z,6.03
2019-05-03T16:47:44.814Z,6.30
2019-05-03T16:50:14.506Z,5.47
2019-05-03T16:52:45.531Z,5.70
2019-05-03T16:55:17.247Z,120.30
2019-05-03T16:57:47.179Z,16.10
2019-05-03T17:00:17.860Z,26.45
2019-05-03T17:02:49.821Z,11.68
2019-05-03T17:05:28.292Z,7.67
2019-05-03T17:08:14.941Z,4.80
2019-05-03T17:10:45.772Z,6.08
2019-05-03T17:13:14.768Z,6.78
2019-05-03T17:15:43.279Z,7.83
2019-05-03T17:18:11.111Z,6.55
2019-05-03T17:20:39.001Z,6.28
2019-05-03T17:23:07.015Z,7.50
2019-05-03T17:25:35.230Z,6.83
2019-05-03T17:28:04.886Z,7.85
2019-05-03T17:30:35.135Z,7.33
2019-05-03T17:33:04.448Z,7.60
2019-05-03T17:35:31.976Z,8.20
2019-05-03T17:38:01.540Z,8.85
2019-05-03T17:40:47.422Z,8.00
2019-05-03T17:43:22.972Z,7.05
2019-05-03T17:45:55.021Z,7.50
2019-05-03T17:48:22.816Z,8.28
2019-05-03T17:50:50.731Z,7.80
2019-05-03T17:53:54.608Z,7.00
2019-05-03T17:56:47.646Z,6.45
2019-05-03T17:59:24.434Z,7.10
2019-05-03T18:02:23.956Z,6.37
2019-05-03T18:05:17.700Z,6.60
2019-05-03T18:08:19.863Z,8.25
2019-05-03T18:10:55.052Z,7.50
2019-05-03T18:13:24.770Z,7.58
2019-05-03T18:15:54.340Z,7.08
2019-05-03T18:18:22.202Z,8.45
2019-05-03T18:20:50.043Z,8.20
2019-05-03T18:23:17.917Z,8.68
2019-05-03T18:25:49.736Z,10.00
2019-05-03T18:28:17.415Z,8.20
2019-05-03T18:30:45.533Z,7.00
2019-05-03T18:33:15.252Z,8.38
2019-05-03T18:35:42.705Z,8.53
2019-05-03T18:38:10.458Z,7.78
2019-05-03T18:40:38.311Z,8.65
2019-05-03T18:43:27.813Z,8.58
2019-05-03T18:46:21.300Z,8.85
2019-05-03T18:48:49.570Z,7.58
2019-05-03T18:51:17.221Z,8.03
2019-05-03T18:53:46.752Z,6.50
2019-05-03T18:56:14.884Z,5.53
2019-05-03T18:58:44.871Z,5.75
2019-05-03T19:01:15.041Z,5.12
2019-05-03T19:03:45.174Z,6.00
2019-05-03T19:06:13.107Z,5.87
2019-05-03T19:08:58.758Z,6.37
2019-05-03T19:11:32.106Z,6.00
2019-05-03T19:14:05.256Z,6.80
2019-05-03T19:17:11.895Z,7.00
2019-05-03T19:19:41.504Z,7.28
2019-05-03T19:22:09.529Z,6.62
2019-05-03T19:24:37.133Z,6.45
2019-05-03T19:27:07.944Z,7.10
2019-05-03T19:29:35.741Z,7.65
2019-05-03T19:32:06.229Z,7.95
2019-05-03T19:34:45.337Z,5.97
2019-05-03T19:37:06.286Z,7.28
2019-05-03T19:39:34.612Z,6.97
2019-05-03T19:42:04.283Z,6.17
2019-05-03T19:44:32.219Z,5.78
2019-05-03T19:47:01.935Z,6.47
2019-05-03T19:49:30.749Z,6.33
2019-05-03T19:51:58.755Z,6.33
2019-05-03T19:54:27.748Z,4.87
2019-05-03T19:56:58.251Z,4.95
2019-05-03T19:59:44.364Z,5.22
2019-05-03T20:02:24.539Z,5.03
2019-05-03T20:05:14.812Z,4.95
2019-05-03T20:08:08.975Z,4.37
2019-05-03T20:10:36.855Z,4.05
2019-05-03T20:13:04.796Z,4.58
2019-05-03T20:15:33.010Z,4.50
2019-05-03T20:18:01.664Z,5.00
2019-05-03T20:20:29.546Z,5.22
2019-05-03T20:22:59.065Z,5.35
2019-05-03T20:25:27.271Z,5.00
2019-05-03T20:27:55.957Z,5.12
2019-05-03T20:30:25.514Z,4.30
2019-05-03T20:32:55.476Z,4.42
2019-05-03T20:35:25.201Z,4.25
2019-05-03T20:37:52.877Z,4.45
2019-05-03T20:40:20.714Z,5.50
2019-05-03T20:43:04.848Z,4.90
2019-05-03T20:45:54.900Z,5.17
2019-05-03T20:48:26.232Z,4.30
2019-05-03T20:51:02.966Z,5.45
2019-05-03T20:53:30.816Z,5.50
2019-05-03T20:55:58.652Z,5.80
2019-05-03T20:58:26.540Z,4.92
2019-05-03T21:00:55.194Z,5.53
2019-05-03T21:03:24.766Z,6.00
2019-05-03T21:05:55.105Z,5.75
2019-05-03T21:08:25.472Z,5.72
2019-05-03T21:10:55.178Z,5.72
2019-05-03T21:13:25.144Z,6.85
2019-05-03T21:16:27.323Z,6.08
2019-05-03T21:19:06.672Z,6.17
2019-05-03T21:21:49.733Z,6.10
2019-05-03T21:24:24.181Z,5.50
2019-05-03T21:26:54.683Z,5.70
2019-05-03T21:29:22.839Z,6.37
2019-05-03T21:31:50.756Z,6.22
2019-05-03T21:34:18.990Z,6.62
2019-05-03T21:36:46.833Z,7.47
2019-05-03T21:39:14.741Z,7.15
2019-05-03T21:41:42.615Z,7.58
2019-05-03T21:44:27.848Z,7.60
2019-05-03T21:46:55.537Z,7.00
2019-05-03T21:49:28.790Z,7.47
2019-05-03T21:51:56.586Z,7.75
2019-05-03T21:54:24.641Z,7.87
2019-05-03T21:56:52.317Z,6.80
2019-05-03T21:59:20.119Z,7.40
2019-05-03T22:01:48.709Z,8.35
2019-05-03T22:04:17.599Z,8.08
2019-05-03T22:06:45.487Z,7.55
2019-05-03T22:09:15.339Z,8.18
2019-05-03T22:11:44.662Z,8.15
2019-05-03T22:14:24.383Z,7.53
2019-05-03T22:17:15.218Z,7.70
2019-05-03T22:19:44.988Z,6.95
2019-05-03T22:22:30.903Z,6.90
2019-05-03T22:24:59.252Z,7.12
2019-05-03T22:27:31.117Z,6.85
2019-05-03T22:29:58.891Z,6.97
2019-05-03T22:32:27.143Z,7.00
2019-05-03T22:34:55.054Z,7.80
2019-05-03T22:37:24.912Z,6.40
2019-05-03T22:39:55.514Z,7.08
2019-05-03T22:45:17.217Z,7.20
2019-05-03T22:47:45.147Z,7.85
2019-05-03T22:50:14.931Z,7.22
2019-05-03T22:52:43.032Z,7.05
2019-05-03T22:55:10.901Z,6.92
2019-05-03T22:57:38.620Z,6.45
2019-05-03T23:00:06.662Z,7.47
2019-05-03T23:02:38.464Z,7.50
2019-05-03T23:05:06.290Z,7.80
2019-05-03T23:07:37.261Z,7.50
2019-05-03T23:10:04.475Z,7.70
2019-05-03T23:12:34.687Z,6.53
2019-05-03T23:15:04.503Z,6.55
2019-05-03T23:17:32.212Z,5.90
2019-05-03T23:20:06.224Z,6.70
2019-05-03T23:22:35.264Z,5.33
2019-05-03T23:25:05.211Z,5.40
2019-05-03T23:27:33.070Z,5.05
2019-05-03T23:30:00.942Z,4.95
2019-05-03T23:32:28.577Z,5.40
2019-05-03T23:34:56.257Z,5.28
2019-05-03T23:37:23.835Z,5.87
2019-05-03T23:39:51.609Z,4.58
2019-05-03T23:42:19.460Z,4.83
2019-05-03T23:44:47.295Z,5.95
2019-05-03T23:47:40.512Z,6.55
2019-05-03T23:50:11.154Z,5.37
2019-05-03T23:52:38.776Z,5.45
2019-05-03T23:55:30.676Z,5.65
2019-05-03T23:57:58.251Z,5.92
